Time;durP1;ratioP1;P1;durP2;ratioP2;P2;SDS_P1;SDS_P2;PMS_P1;PMS_P2;Temp;Humidity;BMP_temperature;BMP_pressure;BME280_temperature;BME280_humidity;BME280_pressure;Samples;Min_cycle;Max_cycle;Signal;HPM_P1;HPM_P2
2024/03/28 00:00:41;;;;;;;;;;;;;;;;;;5075647;28;20011;-75
2024/03/28 00:03:07;;;;;;;;;;;;;;;;;;5094204;28;19912;-74
2024/03/28 00:05:33;;;;;;;;;;;;;;;;;;5094132;28;20478;-74
2024/03/28 00:07:59;;;;;;;;;;;;;;;;;;5075616;28;19931;-74
2024/03/28 00:10:25;;;;;;;;;;;;;;;;;;5094104;28;19961;-74
2024/03/28 00:12:51;;;;;;;;;;;;;;;;;;5094165;28;19915;-74
2024/03/28 00:15:16;;;;;;;;;;;;;;;;;;5093653;28;20368;-74
2024/03/28 00:17:42;;;;;;;;;;;;;;;;;;5093914;28;19914;-74
2024/03/28 00:20:09;;;;;;;;;;;;;;;;;;5093829;28;19908;-72
2024/03/28 00:22:35;;;;;;;;;;;;;;;;;;5093455;28;19923;-75
2024/03/28 00:25:01;;;;;;;;;;;;;;;;;;5094162;28;19948;-74
2024/03/28 00:27:27;;;;;;;;;;;;;;;;;;5075800;28;19912;-75
2024/03/28 00:29:53;;;;;;;;;;;;;;;;;;5075372;28;20357;-75
2024/03/28 00:32:19;;;;;;;;;;;;;;;;;;5093804;28;19951;-74
2024/03/28 00:34:45;;;;;;;;;;;;;;;;;;5093868;28;20364;-74
2024/03/28 00:37:11;;;;;;;;;;;;;;;;;;5094318;28;19999;-74
2024/03/28 00:39:38;;;;;;;;;;;;;;;;;;5093823;28;20418;-74
2024/03/28 00:42:04;;;;;;;;;;;;;;;;;;5075190;28;19920;-74
2024/03/28 00:44:30;;;;;;;;;;;;;;;;;;5097851;28;19961;-74
2024/03/28 00:46:55;;;;;;;;;;;;;;;;;;5097887;28;19915;-74
2024/03/28 00:49:21;;;;;;;;;;;;;;;;;;5097245;28;19923;-74
2024/03/28 00:51:48;;;;;;;;;;;;;;;;;;5097932;28;19908;-74
2024/03/28 00:54:14;;;;;;;;;;;;;;;;;;5097663;28;19908;-74
2024/03/28 00:56:39;;;;;;;;;;;;;;;;;;5097174;28;20329;-75
2024/03/28 00:59:05;;;;;;;;;;;;;;;;;;5097499;28;20326;-75
2024/03/28 01:01:31;;;;;;;;;;;;;;;;;;5079294;28;20330;-75
2024/03/28 01:03:57;;;;;;;;;;;;;;;;;;5078803;28;20391;-75
2024/03/28 01:06:23;;;;;;;;;;;;;;;;;;5097761;28;20007;-75
2024/03/28 01:08:49;;;;;;;;;;;;;;;;;;5079212;28;20376;-74
2024/03/28 01:11:15;;;;;;;;;;;;;;;;;;5096936;28;20421;-75
2024/03/28 01:13:41;;;;;;;;;;;;;;;;;;5097669;28;19922;-74
2024/03/28 01:16:07;;;;;;;;;;;;;;;;;;5097264;28;19939;-74
2024/03/28 01:18:33;;;;;;;;;;;;;;;;;;5096797;28;19908;-74
2024/03/28 01:20:59;;;;;;;;;;;;;;;;;;5078763;28;19920;-74
2024/03/28 01:23:27;;;;;;;;;;;;;;;;;;5078823;28;19908;-75
2024/03/28 01:25:53;;;;;;;;;;;;;;;;;;5096669;28;20272;-75
2024/03/28 01:28:19;;;;;;;;;;;;;;;;;;5078824;28;19912;-75
2024/03/28 01:30:45;;;;;;;;;;;;;;;;;;5097004;28;19935;-75
2024/03/28 01:33:11;;;;;;;;;;;;;;;;;;5078264;28;19911;-75
2024/03/28 01:35:37;;;;;;;;;;;;;;;;;;5078676;28;19912;-74
2024/03/28 01:38:03;;;;;;;;;;;;;;;;;;5096392;28;20280;-74
2024/03/28 01:40:29;;;;;;;;;;;;;;;;;;5097188;28;20420;-75
2024/03/28 01:42:55;;;;;;;;;;;;;;;;;;5096703;28;20357;-75
2024/03/28 01:45:21;;;;;;;;;;;;;;;;;;5096347;28;19912;-74
2024/03/28 01:47:47;;;;;;;;;;;;;;;;;;5096606;28;20003;-75
2024/03/28 01:50:14;;;;;;;;;;;;;;;;;;5096631;28;20280;-75
2024/03/28 01:52:40;;;;;;;;;;;;;;;;;;5096168;28;20363;-76
2024/03/28 01:55:05;;;;;;;;;;;;;;;;;;5077959;28;19920;-75
2024/03/28 01:57:31;;;;;;;;;;;;;;;;;;5096527;28;19912;-75
2024/03/28 01:59:57;;;;;;;;;;;;;;;;;;5096069;28;19943;-75
2024/03/28 02:02:23;;;;;;;;;;;;;;;;;;5096429;28;19920;-75
2024/03/28 02:04:49;;;;;;;;;;;;;;;;;;5096451;28;19908;-75
2024/03/28 02:07:15;;;;;;;;;;;;;;;;;;5096091;28;19908;-75
2024/03/28 02:09:41;;;;;;;;;;;;;;;;;;5096235;28;20003;-75
2024/03/28 02:12:07;;;;;;;;;;;;;;;;;;5096259;28;19915;-74
2024/03/28 02:14:33;;;;;;;;;;;;;;;;;;5095956;28;19923;-74
2024/03/28 02:16:59;;;;;;;;;;;;;;;;;;5078020;28;19908;-74
2024/03/28 02:19:25;;;;;;;;;;;;;;;;;;5096068;28;19908;-74
2024/03/28 02:21:51;;;;;;;;;;;;;;;;;;5095501;28;19924;-75
2024/03/28 02:24:16;;;;;;;;;;;;;;;;;;5077769;28;19912;-74
2024/03/28 02:26:43;;;;;;;;;;;;;;;;;;5095944;28;19908;-75
2024/03/28 02:29:09;;;;;;;;;;;;;;;;;;5095469;28;19908;-75
2024/03/28 02:31:35;;;;;;;;;;;;;;;;;;5095792;28;19915;-75
2024/03/28 02:34:01;;;;;;;;;;;;;;;;;;5096007;28;19975;-75
2024/03/28 02:36:26;;;;;;;;;;;;;;;;;;5095325;28;19919;-75
2024/03/28 02:38:52;;;;;;;;;;;;;;;;;;5095597;28;19908;-75
2024/03/28 02:41:18;;;;;;;;;;;;;;;;;;5095126;28;19923;-75
2024/03/28 02:43:44;;;;;;;;;;;;;;;;;;5077371;28;19908;-75
2024/03/28 02:46:10;;;;;;;;;;;;;;;;;;5095542;28;19909;-75
2024/03/28 02:48:36;;;;;;;;;;;;;;;;;;5076903;28;19912;-75
2024/03/28 02:51:02;;;;;;;;;;;;;;;;;;5095433;28;19907;-75
2024/03/28 02:53:28;;;;;;;;;;;;;;;;;;5095396;28;19908;-75
2024/03/28 02:55:54;;;;;;;;;;;;;;;;;;5094980;28;20257;-75
2024/03/28 02:58:20;;;;;;;;;;;;;;;;;;5077133;28;20280;-75
2024/03/28 03:00:46;;;;;;;;;;;;;;;;;;5095799;28;19916;-75
2024/03/28 03:03:12;;;;;;;;;;;;;;;;;;5094737;28;20007;-75
2024/03/28 03:05:38;;;;;;;;;;;;;;;;;;5094334;28;19915;-75
2024/03/28 03:08:04;;;;;;;;;;;;;;;;;;5095086;28;19908;-75
2024/03/28 03:10:30;;;;;;;;;;;;;;;;;;5076443;28;19908;-75
2024/03/28 03:12:56;;;;;;;;;;;;;;;;;;5095582;28;20284;-75
2024/03/28 03:15:22;;;;;;;;;;;;;;;;;;5095000;28;19969;-75
2024/03/28 03:17:48;;;;;;;;;;;;;;;;;;5094457;28;19908;-75
2024/03/28 03:20:14;;;;;;;;;;;;;;;;;;5094635;28;19908;-73
2024/03/28 03:22:48;;;;;;;;;;;;;;;;;;5094793;28;19926;-75
2024/03/28 03:25:24;;;;;;;;;;;;;;;;;;5094600;28;20259;-75
2024/03/28 03:36:04;;;;;;;;;;;;;;;;;;5094782;28;20268;-77
2024/03/28 03:38:30;;;;;;;;;;;;;;;;;;5094186;28;19912;-77
2024/03/28 03:40:58;;;;;;;;;;;;;;;;;;5094723;28;19915;-77
2024/03/28 03:43:24;;;;;;;;;;;;;;;;;;5094559;28;20016;-77
2024/03/28 03:45:50;;;;;;;;;;;;;;;;;;5094092;28;20380;-77
2024/03/28 03:48:16;;;;;;;;;;;;;;;;;;5094556;28;20360;-77
2024/03/28 03:50:42;;;;;;;;;;;;;;;;;;5094449;28;20425;-77
2024/03/28 03:53:09;;;;;;;;;;;;;;;;;;5094228;28;19914;-77
2024/03/28 03:55:35;;;;;;;;;;;;;;;;;;5094773;28;19951;-78
2024/03/28 03:58:01;;;;;;;;;;;;;;;;;;5076261;28;19947;-78
2024/03/28 04:00:27;;;;;;;;;;;;;;;;;;5093968;28;20291;-78
2024/03/28 04:02:53;;;;;;;;;;;;;;;;;;5094229;28;19948;-77
2024/03/28 04:05:19;;;;;;;;;;;;;;;;;;5094210;28;19908;-77
2024/03/28 04:07:45;;;;;;;;;;;;;;;;;;5093802;28;19908;-78
2024/03/28 04:10:12;;;;;;;;;;;;;;;;;;5094580;28;20349;-77
2024/03/28 04:12:38;;;;;;;;;;;;;;;;;;5093756;28;19908;-77
2024/03/28 04:15:04;;;;;;;;;;;;;;;;;;5094154;28;19908;-77
2024/03/28 04:17:30;;;;;;;;;;;;;;;;;;5094048;28;19909;-77
2024/03/28 04:19:56;;;;;;;;;;;;;;;;;;5093819;28;19908;-76
2024/03/28 04:22:22;;;;;;;;;;;;;;;;;;5075710;28;19924;-76
2024/03/28 04:24:48;;;;;;;;;;;;;;;;;;5093980;28;20020;-77
2024/03/28 04:27:14;;;;;;;;;;;;;;;;;;5093583;28;19934;-76
2024/03/28 04:29:40;;;;;;;;;;;;;;;;;;5075803;28;19914;-77
2024/03/28 04:32:06;;;;;;;;;;;;;;;;;;5075875;28;20015;-76
2024/03/28 04:34:32;;;;;;;;;;;;;;;;;;5093672;28;19915;-77
2024/03/28 04:36:58;;;;;;;;;;;;;;;;;;5093852;28;19908;-76
2024/03/28 04:39:24;;;;;;;;;;;;;;;;;;5093855;28;19942;-76
2024/03/28 04:41:50;;;;;;;;;;;;;;;;;;5093342;28;20015;-76
2024/03/28 04:44:16;;;;;;;;;;;;;;;;;;5075571;28;19913;-76
2024/03/28 04:46:42;;;;;;;;;;;;;;;;;;5093722;28;19931;-76
2024/03/28 04:49:08;;;;;;;;;;;;;;;;;;5093506;28;20268;-75
2024/03/28 04:51:34;;;;;;;;;;;;;;;;;;5075523;28;20276;-75
2024/03/28 04:54:00;;;;;;;;;;;;;;;;;;5093729;28;20441;-75
2024/03/28 04:56:26;;;;;;;;;;;;;;;;;;5093554;28;19954;-77
2024/03/28 04:58:52;;;;;;;;;;;;;;;;;;5093843;28;19908;-75
2024/03/28 05:01:18;;;;;;;;;;;;;;;;;;5075536;28;19912;-76
2024/03/28 05:03:43;;;;;;;;;;;;;;;;;;5074981;28;19919;-76
2024/03/28 05:06:09;;;;;;;;;;;;;;;;;;5075343;28;19908;-76
2024/03/28 05:08:35;;;;;;;;;;;;;;;;;;5093662;28;19916;-76
2024/03/28 05:11:03;;;;;;;;;;;;;;;;;;5093090;28;19922;-76
2024/03/28 05:13:29;;;;;;;;;;;;;;;;;;5093804;28;19908;-75
2024/03/28 05:15:56;;;;;;;;;;;;;;;;;;5093183;28;19953;-75
2024/03/28 05:18:22;;;;;;;;;;;;;;;;;;5075081;28;19916;-75
2024/03/28 05:20:47;;;;;;;;;;;;;;;;;;5091470;28;19916;-75
2024/03/28 05:23:13;;;;;;;;;;;;;;;;;;5092082;28;19908;-75
2024/03/28 05:25:39;;;;;;;;;;;;;;;;;;5093481;28;20045;-75
2024/03/28 05:28:05;;;;;;;;;;;;;;;;;;5093511;28;19923;-75
2024/03/28 05:30:31;;;;;;;;;;;;;;;;;;5077295;28;19931;-77
2024/03/28 05:33:00;;;;;;;;;;;;;;;;;;5096789;28;20359;-74
2024/03/28 05:35:26;;;;;;;;;;;;;;;;;;5096954;28;19919;-76
2024/03/28 05:37:52;;;;;;;;;;;;;;;;;;5095824;28;20003;-75
2024/03/28 05:40:18;;;;;;;;;;;;;;;;;;5094807;28;20272;-75
2024/03/28 05:42:44;;;;;;;;;;;;;;;;;;5094719;28;20335;-75
2024/03/28 05:45:12;;;;;;;;;;;;;;;;;;5094392;28;20364;-75
2024/03/28 05:47:38;;;;;;;;;;;;;;;;;;5094674;28;20003;-75
2024/03/28 05:50:04;;;;;;;;;;;;;;;;;;5094383;28;20054;-75
2024/03/28 05:52:30;;;;;;;;;;;;;;;;;;5094021;28;19916;-75
2024/03/28 05:54:56;;;;;;;;;;;;;;;;;;5077319;28;19973;-75
2024/03/28 05:57:22;;;;;;;;;;;;;;;;;;5096073;28;19977;-75
2024/03/28 05:59:48;;;;;;;;;;;;;;;;;;5095505;28;20046;-75
2024/03/28 06:02:14;;;;;;;;;;;;;;;;;;5095134;28;20284;-75
2024/03/28 06:04:40;;;;;;;;;;;;;;;;;;5096274;28;20374;-75
2024/03/28 06:07:05;;;;;;;;;;;;;;;;;;5096064;28;19916;-76
2024/03/28 06:09:31;;;;;;;;;;;;;;;;;;5096469;28;20408;-75
2024/03/28 06:11:57;;;;;;;;;;;;;;;;;;5096102;28;19908;-75
2024/03/28 06:14:23;;;;;;;;;;;;;;;;;;5095634;28;19912;-75
2024/03/28 06:16:49;;;;;;;;;;;;;;;;;;5096219;28;19915;-75
2024/03/28 06:19:15;;;;;;;;;;;;;;;;;;5095506;28;19947;-74
2024/03/28 06:21:41;;;;;;;;;;;;;;;;;;5094988;28;19920;-74
2024/03/28 06:24:07;;;;;;;;;;;;;;;;;;5093893;28;19912;-73
2024/03/28 06:26:35;;;;;;;;;;;;;;;;;;5090382;28;19970;-72
2024/03/28 06:29:01;;;;;;;;;;;;;;;;;;5083542;28;19912;-72
2024/03/28 06:31:27;;;;;;;;;;;;;;;;;;5083575;28;19926;-72
2024/03/28 06:33:53;;;;;;;;;;;;;;;;;;5073692;28;19912;-71
2024/03/28 06:36:19;;;;;;;;;;;;;;;;;;5072705;28;19919;-71
2024/03/28 06:38:45;;;;;;;;;;;;;;;;;;5087592;28;19919;-70
2024/03/28 06:41:11;;;;;;;;;;;;;;;;;;5071376;28;19999;-72
2024/03/28 06:43:39;;;;;;;;;;;;;;;;;;5089806;28;20023;-71
2024/03/28 06:46:05;;;;;;;;;;;;;;;;;;5090261;28;20276;-71
2024/03/28 06:48:31;;;;;;;;;;;;;;;;;;5089967;28;19916;-73
2024/03/28 06:50:57;;;;;;;;;;;;;;;;;;5091393;28;19912;-72
2024/03/28 06:53:25;;;;;;;;;;;;;;;;;;5090592;28;20007;-71
2024/03/28 06:55:51;;;;;;;;;;;;;;;;;;5073393;28;19919;-72
2024/03/28 06:58:17;;;;;;;;;;;;;;;;;;5091087;28;19912;-71
2024/03/28 07:00:43;;;;;;;;;;;;;;;;;;5092116;28;19912;-72
2024/03/28 07:03:09;;;;;;;;;;;;;;;;;;5072681;28;19931;-72
2024/03/28 07:05:35;;;;;;;;;;;;;;;;;;5091838;28;19912;-72
2024/03/28 07:08:01;;;;;;;;;;;;;;;;;;5074063;28;20250;-73
2024/03/28 07:10:27;;;;;;;;;;;;;;;;;;5090592;28;19924;-73
2024/03/28 07:12:53;;;;;;;;;;;;;;;;;;5091542;28;20330;-72
2024/03/28 07:15:19;;;;;;;;;;;;;;;;;;5090613;28;19912;-71
2024/03/28 07:17:45;;;;;;;;;;;;;;;;;;5089674;28;19912;-72
2024/03/28 07:20:11;;;;;;;;;;;;;;;;;;5090381;28;19913;-73
2024/03/28 07:22:37;;;;;;;;;;;;;;;;;;5081302;28;19928;-71
2024/03/28 07:25:06;;;;;;;;;;;;;;;;;;5084810;28;19912;-71
2024/03/28 07:27:32;;;;;;;;;;;;;;;;;;5089442;28;20356;-74
2024/03/28 07:29:58;;;;;;;;;;;;;;;;;;5088877;28;20367;-71
2024/03/28 07:32:26;;;;;;;;;;;;;;;;;;5090243;28;19916;-71
2024/03/28 07:34:52;;;;;;;;;;;;;;;;;;5090303;28;19938;-72
2024/03/28 07:37:18;;;;;;;;;;;;;;;;;;5087298;28;19915;-73
2024/03/28 07:39:44;;;;;;;;;;;;;;;;;;5071053;28;19999;-73
2024/03/28 07:42:10;;;;;;;;;;;;;;;;;;5087615;28;20368;-73
2024/03/28 07:44:36;;;;;;;;;;;;;;;;;;5071775;28;19920;-72
2024/03/28 07:47:11;;;;;;;;;;;;;;;;;;5086130;27;19917;-69
2024/03/28 07:49:37;;;;;;;;;;;;;;;;;;5085360;28;19935;-71
2024/03/28 07:52:03;;;;;;;;;;;;;;;;;;5086473;28;19908;-71
2024/03/28 07:54:30;;;;;;;;;;;;;;;;;;5085066;28;19912;-72
2024/03/28 07:57:26;;;;;;;;;;;;;;;;;;5112416;27;19937;-70
2024/03/28 07:59:52;;;;;;;;;;;;;;;;;;5120005;28;20280;-70
2024/03/28 08:02:19;;;;;;;;;;;;;;;;;;5119492;27;19908;-69
2024/03/28 08:05:58;;;;;;;;;;;;;;;;;;5154707;27;19912;-70
2024/03/28 08:08:24;;;;;;;;;;;;;;;;;;5114909;28;19918;-74
2024/03/28 08:10:50;;;;;;;;;;;;;;;;;;5106821;28;19986;-69
2024/03/28 08:14:36;;;;;;;;;;;;;;;;;;5087427;28;19927;-70
2024/03/28 08:17:02;;;;;;;;;;;;;;;;;;5084763;28;19916;-71
2024/03/28 08:19:52;;;;;;;;;;;;;;;;;;5115800;27;20336;-75
2024/03/28 08:22:19;;;;;;;;;;;;;;;;;;5118700;27;19915;-71
2024/03/28 08:24:46;;;;;;;;;;;;;;;;;;5116402;28;19908;-71
2024/03/28 08:29:39;;;;;;;;;;;;;;;;;;5122297;27;20542;-70
2024/03/28 08:32:05;;;;;;;;;;;;;;;;;;5123822;27;19912;-70
2024/03/28 08:37:25;;;;;;;;;;;;;;;;;;5136536;27;20388;-69
2024/03/28 08:41:45;;;;;;;;;;;;;;;;;;5083028;28;19923;-71
2024/03/28 08:45:23;;;;;;;;;;;;;;;;;;5086594;27;19913;-71
2024/03/28 08:47:48;;;;;;;;;;;;;;;;;;5085285;28;19931;-72
2024/03/28 08:50:14;;;;;;;;;;;;;;;;;;5083856;28;19908;-70
2024/03/28 08:52:44;;;;;;;;;;;;;;;;;;5084051;28;19967;-71
2024/03/28 08:55:13;;;;;;;;;;;;;;;;;;5082822;28;20369;-71
2024/03/28 08:57:39;;;;;;;;;;;;;;;;;;5083895;28;19923;-70
2024/03/28 09:00:10;;;;;;;;;;;;;;;;;;5084402;28;20276;-71
2024/03/28 09:04:01;;;;;;;;;;;;;;;;;;5131670;27;19915;-70
2024/03/28 09:06:27;;;;;;;;;;;;;;;;;;5117274;27;20159;-71
2024/03/28 09:10:57;;;;;;;;;;;;;;;;;;5122660;27;20388;-70
2024/03/28 09:13:23;;;;;;;;;;;;;;;;;;5116438;27;19920;-71
2024/03/28 09:18:29;;;;;;;;;;;;;;;;;;5119106;27;20405;-72
2024/03/28 09:20:55;;;;;;;;;;;;;;;;;;5117788;27;19915;-72
2024/03/28 09:25:57;;;;;;;;;;;;;;;;;;5122619;27;20314;-70
2024/03/28 09:28:24;;;;;;;;;;;;;;;;;;5113377;28;20463;-72
2024/03/28 09:31:06;;;;;;;;;;;;;;;;;;5118587;27;19941;-71
2024/03/28 09:33:55;;;;;;;;;;;;;;;;;;5143464;27;19916;-70
2024/03/28 09:37:28;;;;;;;;;;;;;;;;;;5117509;27;19926;-71
2024/03/28 09:39:54;;;;;;;;;;;;;;;;;;5121343;27;20378;-72
2024/03/28 09:43:13;;;;;;;;;;;;;;;;;;5107926;27;20573;-71
2024/03/28 09:46:54;;;;;;;;;;;;;;;;;;5132004;27;19915;-70
2024/03/28 09:49:50;;;;;;;;;;;;;;;;;;5140240;27;19912;-68
2024/03/28 09:52:16;;;;;;;;;;;;;;;;;;5099765;28;20011;-71
2024/03/28 09:57:08;;;;;;;;;;;;;;;;;;5123386;27;19922;-71
2024/03/28 09:59:34;;;;;;;;;;;;;;;;;;5127073;27;19911;-71
2024/03/28 10:04:03;;;;;;;;;;;;;;;;;;5124741;27;19922;-72
2024/03/28 10:07:33;;;;;;;;;;;;;;;;;;5087370;27;19916;-71
2024/03/28 10:09:59;;;;;;;;;;;;;;;;;;5087046;28;19912;-71
2024/03/28 10:12:25;;;;;;;;;;;;;;;;;;5084364;28;19916;-72
2024/03/28 10:14:51;;;;;;;;;;;;;;;;;;5085077;28;19916;-72
2024/03/28 10:17:18;;;;;;;;;;;;;;;;;;5085688;28;19919;-73
2024/03/28 10:19:44;;;;;;;;;;;;;;;;;;5083143;28;19915;-72
2024/03/28 10:25:18;;;;;;;;;;;;;;;;;;5121473;27;19919;-72
2024/03/28 10:29:37;;;;;;;;;;;;;;;;;;5136444;27;19915;-72
2024/03/28 10:32:04;;;;;;;;;;;;;;;;;;5111838;28;19922;-72
2024/03/28 10:36:49;;;;;;;;;;;;;;;;;;5110334;27;19931;-71
2024/03/28 10:41:40;;;;;;;;;;;;;;;;;;5117727;27;19931;-72
2024/03/28 10:44:06;;;;;;;;;;;;;;;;;;5094656;27;20459;-71
2024/03/28 10:46:32;;;;;;;;;;;;;;;;;;5090296;27;19978;-71
2024/03/28 10:49:05;;;;;;;;;;;;;;;;;;5093661;27;19912;-71
2024/03/28 10:51:31;;;;;;;;;;;;;;;;;;5087562;27;19923;-71
2024/03/28 10:57:38;;;;;;;;;;;;;;;;;;5129449;27;19919;-71
2024/03/28 11:00:05;;;;;;;;;;;;;;;;;;5098313;28;20915;-70
2024/03/28 11:02:32;;;;;;;;;;;;;;;;;;5078298;28;19953;-72
2024/03/28 11:04:57;;;;;;;;;;;;;;;;;;5100603;28;19952;-71
2024/03/28 11:08:39;;;;;;;;;;;;;;;;;;5052027;27;19936;-71
2024/03/28 11:11:05;;;;;;;;;;;;;;;;;;5045890;28;19924;-71
2024/03/28 11:13:32;;;;;;;;;;;;;;;;;;5046185;28;19920;-73
2024/03/28 11:15:58;;;;;;;;;;;;;;;;;;5057731;28;19940;-72
2024/03/28 11:18:25;;;;;;;;;;;;;;;;;;5055699;28;19920;-70
2024/03/28 11:20:51;;;;;;;;;;;;;;;;;;5059623;28;19924;-69
2024/03/28 11:24:43;;;;;;;;;;;;;;;;;;5085136;27;20330;-72
2024/03/28 11:27:09;;;;;;;;;;;;;;;;;;5091713;28;19916;-69
2024/03/28 11:29:35;;;;;;;;;;;;;;;;;;5089104;28;20372;-73
2024/03/28 11:32:02;;;;;;;;;;;;;;;;;;5083870;28;20368;-74
2024/03/28 11:34:28;;;;;;;;;;;;;;;;;;5090106;28;19994;-73
2024/03/28 11:38:24;;;;;;;;;;;;;;;;;;5085997;27;19916;-71
2024/03/28 11:40:50;;;;;;;;;;;;;;;;;;5081000;28;20361;-72
2024/03/28 11:43:16;;;;;;;;;;;;;;;;;;5080568;28;19916;-70
2024/03/28 11:46:11;;;;;;;;;;;;;;;;;;5120558;27;20341;-72
2024/03/28 11:48:37;;;;;;;;;;;;;;;;;;5121946;28;19912;-71
2024/03/28 11:51:03;;;;;;;;;;;;;;;;;;5120399;28;19927;-72
2024/03/28 11:53:29;;;;;;;;;;;;;;;;;;5116599;27;19912;-73
2024/03/28 11:56:29;;;;;;;;;;;;;;;;;;5083978;27;19939;-75
2024/03/28 11:58:55;;;;;;;;;;;;;;;;;;5084353;28;19912;-69
2024/03/28 12:01:21;;;;;;;;;;;;;;;;;;5086954;28;20331;-71
2024/03/28 12:03:47;;;;;;;;;;;;;;;;;;5090833;28;19944;-70
2024/03/28 12:06:13;;;;;;;;;;;;;;;;;;5090751;28;19909;-72
2024/03/28 12:10:07;;;;;;;;;;;;;;;;;;5111651;27;19923;-70
2024/03/28 12:12:33;;;;;;;;;;;;;;;;;;5108819;28;20038;-71
2024/03/28 12:15:41;;;;;;;;;;;;;;;;;;5088961;27;19916;-71
2024/03/28 12:18:07;;;;;;;;;;;;;;;;;;5088023;28;19922;-69
2024/03/28 12:20:33;;;;;;;;;;;;;;;;;;5089089;28;19913;-70
2024/03/28 12:22:59;;;;;;;;;;;;;;;;;;5088953;28;19915;-72
2024/03/28 12:25:25;;;;;;;;;;;;;;;;;;5090452;28;19958;-71
2024/03/28 12:27:51;;;;;;;;;;;;;;;;;;5090980;28;19920;-70
2024/03/28 12:30:17;;;;;;;;;;;;;;;;;;5089183;28;19908;-71
2024/03/28 12:32:43;;;;;;;;;;;;;;;;;;5088786;28;19913;-70
2024/03/28 12:35:09;;;;;;;;;;;;;;;;;;5090713;28;19924;-72
2024/03/28 12:37:35;;;;;;;;;;;;;;;;;;5089447;28;19909;-71
2024/03/28 12:40:01;;;;;;;;;;;;;;;;;;5089451;28;19957;-70
2024/03/28 12:42:27;;;;;;;;;;;;;;;;;;5072994;28;19920;-71
2024/03/28 12:44:56;;;;;;;;;;;;;;;;;;5068176;28;19916;-71
2024/03/28 12:47:23;;;;;;;;;;;;;;;;;;5069023;28;20322;-69
2024/03/28 12:49:48;;;;;;;;;;;;;;;;;;5068834;28;19909;-70
2024/03/28 12:52:14;;;;;;;;;;;;;;;;;;5069829;28;19915;-71
2024/03/28 12:54:40;;;;;;;;;;;;;;;;;;5057412;28;20025;-71
2024/03/28 12:57:06;;;;;;;;;;;;;;;;;;5087797;28;20400;-70
2024/03/28 12:59:32;;;;;;;;;;;;;;;;;;5085849;28;20368;-71
2024/03/28 13:01:58;;;;;;;;;;;;;;;;;;5086524;28;19909;-70
2024/03/28 13:04:24;;;;;;;;;;;;;;;;;;5090030;28;20409;-70
2024/03/28 13:06:50;;;;;;;;;;;;;;;;;;5088138;28;19939;-71
2024/03/28 13:09:16;;;;;;;;;;;;;;;;;;5089656;28;19912;-71
2024/03/28 13:13:46;;;;;;;;;;;;;;;;;;5087968;28;19923;-69
2024/03/28 13:16:11;;;;;;;;;;;;;;;;;;5084963;28;19912;-72
2024/03/28 13:18:37;;;;;;;;;;;;;;;;;;5086804;28;20414;-73
2024/03/28 13:21:03;;;;;;;;;;;;;;;;;;5083959;28;20404;-74
2024/03/28 13:23:29;;;;;;;;;;;;;;;;;;5083725;28;19961;-74
2024/03/28 13:25:55;;;;;;;;;;;;;;;;;;5084341;28;20314;-74
2024/03/28 13:28:21;;;;;;;;;;;;;;;;;;5087389;28;20258;-75
2024/03/28 13:30:47;;;;;;;;;;;;;;;;;;5089123;28;20366;-74
2024/03/28 13:33:13;;;;;;;;;;;;;;;;;;5088665;28;20450;-75
2024/03/28 13:35:39;;;;;;;;;;;;;;;;;;5089830;28;19933;-74
2024/03/28 13:38:06;;;;;;;;;;;;;;;;;;5088578;28;20031;-74
2024/03/28 13:40:32;;;;;;;;;;;;;;;;;;5090711;28;19915;-75
2024/03/28 13:42:58;;;;;;;;;;;;;;;;;;5090249;28;19909;-76
2024/03/28 13:45:24;;;;;;;;;;;;;;;;;;5090655;28;20389;-75
2024/03/28 13:47:49;;;;;;;;;;;;;;;;;;5091028;28;20311;-74
2024/03/28 13:50:15;;;;;;;;;;;;;;;;;;5090255;28;20380;-74
2024/03/28 13:52:41;;;;;;;;;;;;;;;;;;5089443;28;19962;-74
2024/03/28 13:55:07;;;;;;;;;;;;;;;;;;5089561;28;19915;-74
2024/03/28 13:57:33;;;;;;;;;;;;;;;;;;5088612;28;20019;-74
2024/03/28 13:59:59;;;;;;;;;;;;;;;;;;5088216;28;19909;-74
2024/03/28 14:02:25;;;;;;;;;;;;;;;;;;5079778;28;19962;-73
2024/03/28 14:04:51;;;;;;;;;;;;;;;;;;5087044;28;19916;-73
2024/03/28 14:07:17;;;;;;;;;;;;;;;;;;5086896;28;19909;-73
2024/03/28 14:09:43;;;;;;;;;;;;;;;;;;5086052;28;19951;-73
2024/03/28 14:12:09;;;;;;;;;;;;;;;;;;5085500;28;19920;-72
2024/03/28 14:14:35;;;;;;;;;;;;;;;;;;5086253;28;19962;-72
2024/03/28 14:17:01;;;;;;;;;;;;;;;;;;5086813;28;19909;-72
2024/03/28 14:19:27;;;;;;;;;;;;;;;;;;5085962;28;19947;-73
2024/03/28 14:21:53;;;;;;;;;;;;;;;;;;5086030;28;19913;-74
2024/03/28 14:24:19;;;;;;;;;;;;;;;;;;5075111;28;19908;-73
2024/03/28 14:26:45;;;;;;;;;;;;;;;;;;5072672;28;19908;-75
2024/03/28 14:29:10;;;;;;;;;;;;;;;;;;5074284;28;19947;-73
2024/03/28 14:31:36;;;;;;;;;;;;;;;;;;5073710;28;19908;-74
2024/03/28 14:34:02;;;;;;;;;;;;;;;;;;5074829;28;19913;-73
2024/03/28 14:36:28;;;;;;;;;;;;;;;;;;5073665;28;19953;-74
2024/03/28 14:38:54;;;;;;;;;;;;;;;;;;5075821;28;20001;-75
2024/03/28 14:41:20;;;;;;;;;;;;;;;;;;5076172;28;19908;-75
2024/03/28 14:43:46;;;;;;;;;;;;;;;;;;5076163;28;19908;-75
2024/03/28 14:46:12;;;;;;;;;;;;;;;;;;5075859;28;19909;-74
2024/03/28 14:48:38;;;;;;;;;;;;;;;;;;5074908;28;19909;-75
2024/03/28 14:51:04;;;;;;;;;;;;;;;;;;5076455;28;19908;-75
2024/03/28 14:53:30;;;;;;;;;;;;;;;;;;5074389;28;20017;-73
2024/03/28 14:55:57;;;;;;;;;;;;;;;;;;5075801;28;19909;-75
2024/03/28 14:58:22;;;;;;;;;;;;;;;;;;5075955;28;19916;-74
2024/03/28 15:00:48;;;;;;;;;;;;;;;;;;5075468;28;19962;-75
2024/03/28 15:03:14;;;;;;;;;;;;;;;;;;5075899;28;20325;-74
2024/03/28 15:05:40;;;;;;;;;;;;;;;;;;5076170;28;20345;-75
2024/03/28 15:08:06;;;;;;;;;;;;;;;;;;5075475;28;20380;-74
2024/03/28 15:10:35;;;;;;;;;;;;;;;;;;5075959;28;20365;-75
2024/03/28 15:13:01;;;;;;;;;;;;;;;;;;5075460;28;19920;-74
2024/03/28 15:15:27;;;;;;;;;;;;;;;;;;5073987;28;19915;-74
2024/03/28 15:17:53;;;;;;;;;;;;;;;;;;5075883;28;19909;-74
2024/03/28 15:20:18;;;;;;;;;;;;;;;;;;5074082;28;20042;-73
2024/03/28 15:22:44;;;;;;;;;;;;;;;;;;5069926;28;19913;-73
2024/03/28 15:25:10;;;;;;;;;;;;;;;;;;5075115;28;19909;-73
2024/03/28 15:27:36;;;;;;;;;;;;;;;;;;5075307;28;19915;-74
2024/03/28 15:30:02;;;;;;;;;;;;;;;;;;5075018;28;19912;-75
2024/03/28 15:32:30;;;;;;;;;;;;;;;;;;5075089;28;19917;-75
2024/03/28 15:34:56;;;;;;;;;;;;;;;;;;5074221;28;20414;-74
2024/03/28 15:37:22;;;;;;;;;;;;;;;;;;5075000;28;19913;-74
2024/03/28 15:39:48;;;;;;;;;;;;;;;;;;5075241;28;19995;-74
2024/03/28 15:42:13;;;;;;;;;;;;;;;;;;5074974;28;19923;-74
2024/03/28 15:44:40;;;;;;;;;;;;;;;;;;5074983;28;19915;-74
2024/03/28 15:47:06;;;;;;;;;;;;;;;;;;5073707;28;19920;-74
2024/03/28 15:49:32;;;;;;;;;;;;;;;;;;5074641;28;19908;-74
2024/03/28 15:51:57;;;;;;;;;;;;;;;;;;5074934;28;19916;-75
2024/03/28 15:54:23;;;;;;;;;;;;;;;;;;5073591;28;19909;-75
2024/03/28 15:56:49;;;;;;;;;;;;;;;;;;5073172;28;19909;-74
2024/03/28 15:59:15;;;;;;;;;;;;;;;;;;5074721;28;20038;-74
2024/03/28 16:01:41;;;;;;;;;;;;;;;;;;5073501;28;19954;-74
2024/03/28 16:04:07;;;;;;;;;;;;;;;;;;5073283;28;19919;-75
2024/03/28 16:06:36;;;;;;;;;;;;;;;;;;5074616;28;19909;-75
2024/03/28 16:09:01;;;;;;;;;;;;;;;;;;5074391;28;19916;-74
2024/03/28 16:12:35;;;;;;;;;;;;;;;;;;5092096;27;19916;-74
2024/03/28 16:15:01;;;;;;;;;;;;;;;;;;5091492;28;19938;-73
2024/03/28 16:17:27;;;;;;;;;;;;;;;;;;5090928;28;19908;-74
2024/03/28 16:19:52;;;;;;;;;;;;;;;;;;5091223;28;19954;-74
2024/03/28 16:23:23;;;;;;;;;;;;;;;;;;5132380;27;19922;-74
2024/03/28 16:25:49;;;;;;;;;;;;;;;;;;5131855;28;20014;-74
2024/03/28 16:28:15;;;;;;;;;;;;;;;;;;5132118;28;19908;-74
2024/03/28 16:32:39;;;;;;;;;;;;;;;;;;5091070;27;19922;-74
2024/03/28 16:35:05;;;;;;;;;;;;;;;;;;5091838;28;19966;-74
2024/03/28 16:37:31;;;;;;;;;;;;;;;;;;5091431;28;19912;-74
2024/03/28 16:40:41;;;;;;;;;;;;;;;;;;5111962;27;19916;-74
2024/03/28 16:44:47;;;;;;;;;;;;;;;;;;5173624;27;19911;-74
2024/03/28 16:47:13;;;;;;;;;;;;;;;;;;5173255;27;19918;-73
2024/03/28 16:49:39;;;;;;;;;;;;;;;;;;5173823;27;19971;-71
2024/03/28 16:52:05;;;;;;;;;;;;;;;;;;5173440;27;19915;-73
2024/03/28 16:54:31;;;;;;;;;;;;;;;;;;5154845;27;19943;-73
2024/03/28 16:56:57;;;;;;;;;;;;;;;;;;5173411;27;19913;-73
2024/03/28 17:03:28;;;;;;;;;;;;;;;;;;5112626;27;19923;-74
2024/03/28 17:05:54;;;;;;;;;;;;;;;;;;5111713;28;19911;-73
2024/03/28 17:08:20;;;;;;;;;;;;;;;;;;5109989;28;19940;-73
2024/03/28 17:11:48;;;;;;;;;;;;;;;;;;5103487;27;19916;-73
2024/03/28 17:14:14;;;;;;;;;;;;;;;;;;5069465;28;20349;-73
2024/03/28 17:16:40;;;;;;;;;;;;;;;;;;5069878;28;19912;-75
2024/03/28 17:19:20;;;;;;;;;;;;;;;;;;5112365;27;19916;-73
2024/03/28 17:23:53;;;;;;;;;;;;;;;;;;5091941;27;20398;-73
2024/03/28 17:26:19;;;;;;;;;;;;;;;;;;5091388;28;19999;-74
2024/03/28 17:29:12;;;;;;;;;;;;;;;;;;5111401;27;20299;-74
2024/03/28 17:31:38;;;;;;;;;;;;;;;;;;5110518;28;19995;-73
2024/03/28 17:34:04;;;;;;;;;;;;;;;;;;5111647;28;19912;-73
2024/03/28 17:36:30;;;;;;;;;;;;;;;;;;5111127;28;19995;-73
2024/03/28 17:38:58;;;;;;;;;;;;;;;;;;5111577;28;19908;-74
2024/03/28 17:41:32;;;;;;;;;;;;;;;;;;5111260;27;19916;-74
2024/03/28 17:43:58;;;;;;;;;;;;;;;;;;5110474;28;20006;-73
2024/03/28 17:53:28;;;;;;;;;;;;;;;;;;5071238;28;19923;-72
2024/03/28 17:55:54;;;;;;;;;;;;;;;;;;5070856;28;19912;-73
2024/03/28 17:58:20;;;;;;;;;;;;;;;;;;5071167;28;19909;-73
2024/03/28 18:00:46;;;;;;;;;;;;;;;;;;5071199;28;19955;-74